createdAt,value
2022-10-08T00:01:12.119Z,9.90
2022-10-08T00:03:43.400Z,10.00
2022-10-08T00:06:19.671Z,10.00
2022-10-08T00:08:52.413Z,9.90
2022-10-08T00:11:22.714Z,9.90
2022-10-08T00:13:50.832Z,9.90
2022-10-08T00:16:30.482Z,9.90
2022-10-08T00:19:03.797Z,9.80
2022-10-08T00:21:36.798Z,9.80
2022-10-08T00:24:06.253Z,9.70
2022-10-08T00:26:37.596Z,9.80
2022-10-08T00:29:09.806Z,9.80
2022-10-08T00:31:40.565Z,9.80
2022-10-08T00:34:10.671Z,9.70
2022-10-08T00:36:39.447Z,9.70
2022-10-08T00:39:13.594Z,9.70
2022-10-08T00:41:42.638Z,9.80
2022-10-08T00:44:46.919Z,9.80
2022-10-08T00:47:22.133Z,9.70
2022-10-08T00:49:51.524Z,9.70
2022-10-08T00:52:19.657Z,9.70
2022-10-08T00:54:50.114Z,9.70
2022-10-08T00:57:18.351Z,9.70
2022-10-08T00:59:45.573Z,9.70
2022-10-08T01:02:13.714Z,9.80
2022-10-08T01:04:43.020Z,9.80
2022-10-08T01:07:22.029Z,9.80
2022-10-08T01:10:15.981Z,9.90
2022-10-08T01:13:01.878Z,10.00
2022-10-08T01:15:48.062Z,10.00
2022-10-08T01:18:30.732Z,10.00
2022-10-08T01:21:17.850Z,10.00
2022-10-08T01:24:06.365Z,10.00
2022-10-08T01:27:06.930Z,10.10
2022-10-08T01:29:42.499Z,10.10
2022-10-08T01:32:17.150Z,10.10
2022-10-08T01:34:50.858Z,10.10
2022-10-08T01:37:24.605Z,10.10
2022-10-08T01:39:55.170Z,10.10
2022-10-08T01:42:25.387Z,10.10
2022-10-08T01:45:00.322Z,10.10
2022-10-08T01:47:30.952Z,10.10
2022-10-08T01:50:07.556Z,10.10
2022-10-08T01:52:42.680Z,10.20
2022-10-08T01:55:17.790Z,10.20
2022-10-08T01:57:45.761Z,10.10
2022-10-08T02:00:15.231Z,10.10
2022-10-08T02:02:43.904Z,10.10
2022-10-08T02:05:11.800Z,10.10
2022-10-08T02:07:42.506Z,10.10
2022-10-08T02:10:24.218Z,10.10
2022-10-08T02:12:51.495Z,10.00
2022-10-08T02:15:51.519Z,10.10
2022-10-08T02:18:27.290Z,10.10
2022-10-08T02:21:04.227Z,10.10
2022-10-08T02:23:46.855Z,10.20
2022-10-08T02:26:21.264Z,10.20
2022-10-08T02:29:02.324Z,10.20
2022-10-08T02:31:46.807Z,10.30
2022-10-08T02:34:32.646Z,10.30
2022-10-08T02:37:24.548Z,10.30
2022-10-08T02:40:01.330Z,10.30
2022-10-08T02:42:31.552Z,10.30
2022-10-08T02:45:14.886Z,10.30
2022-10-08T02:47:44.331Z,10.30
2022-10-08T02:50:17.850Z,10.20
2022-10-08T02:52:47.251Z,10.20
2022-10-08T02:55:38.382Z,10.20
2022-10-08T02:58:08.651Z,10.20
2022-10-08T03:01:00.534Z,10.10
2022-10-08T03:03:37.172Z,10.10
2022-10-08T03:06:08.913Z,10.00
2022-10-08T03:08:41.095Z,10.00
2022-10-08T03:11:08.574Z,10.00
2022-10-08T03:13:39.672Z,9.90
2022-10-08T03:16:09.787Z,9.90
2022-10-08T03:18:39.019Z,9.90
2022-10-08T03:21:09.074Z,9.80
2022-10-08T03:23:36.182Z,9.80
2022-10-08T03:26:03.437Z,9.70
2022-10-08T03:28:30.445Z,9.70
2022-10-08T03:30:57.653Z,9.70
2022-10-08T03:33:24.888Z,9.60
2022-10-08T03:35:51.814Z,9.60
2022-10-08T03:38:18.898Z,9.60
2022-10-08T03:40:57.982Z,9.60
2022-10-08T03:43:30.959Z,9.60
2022-10-08T03:45:58.104Z,9.60
2022-10-08T03:48:25.118Z,9.60
2022-10-08T03:50:54.389Z,9.60
2022-10-08T03:53:22.509Z,9.60
2022-10-08T03:55:50.121Z,9.60
2022-10-08T03:58:17.891Z,9.60
2022-10-08T04:00:55.591Z,9.60
2022-10-08T04:03:22.571Z,9.70
2022-10-08T04:05:50.588Z,9.80
2022-10-08T04:08:17.633Z,9.80
2022-10-08T04:10:44.595Z,9.80
2022-10-08T04:13:11.774Z,9.80
2022-10-08T04:15:38.866Z,9.80
2022-10-08T04:18:07.268Z,9.90
2022-10-08T04:20:34.457Z,9.90
2022-10-08T04:23:01.423Z,9.90
2022-10-08T04:25:28.409Z,9.90
2022-10-08T04:27:55.584Z,9.90
2022-10-08T04:30:24.019Z,9.90
2022-10-08T04:32:51.358Z,10.00
2022-10-08T04:35:18.555Z,10.00
2022-10-08T04:37:45.617Z,10.10
2022-10-08T04:40:12.569Z,10.10
2022-10-08T04:42:39.738Z,10.10
2022-10-08T04:45:07.114Z,10.20
2022-10-08T04:47:34.046Z,10.30
2022-10-08T04:50:01.235Z,10.40
2022-10-08T04:52:28.188Z,10.50
2022-10-08T04:54:55.109Z,10.60
2022-10-08T04:57:22.319Z,10.60
2022-10-08T05:00:16.595Z,10.70
2022-10-08T05:02:36.592Z,10.80
2022-10-08T05:05:04.795Z,10.80
2022-10-08T05:07:31.739Z,10.80
2022-10-08T05:09:58.915Z,10.90
2022-10-08T05:12:25.829Z,10.90
2022-10-08T05:14:55.527Z,11.00
2022-10-08T05:17:22.769Z,11.10
2022-10-08T05:19:49.694Z,11.10
2022-10-08T05:22:16.694Z,11.10
2022-10-08T05:24:43.866Z,11.10
2022-10-08T05:27:11.342Z,11.20
2022-10-08T05:29:38.489Z,11.20
2022-10-08T05:32:05.690Z,11.20
2022-10-08T05:34:32.711Z,11.20
2022-10-08T05:36:59.713Z,11.10
2022-10-08T05:39:26.912Z,11.10
2022-10-08T05:41:54.437Z,11.10
2022-10-08T05:44:21.564Z,11.10
2022-10-08T05:46:48.910Z,11.10
2022-10-08T05:49:22.703Z,11.10
2022-10-08T05:51:50.584Z,11.10
2022-10-08T05:54:18.636Z,11.10
2022-10-08T05:56:45.582Z,11.20
2022-10-08T05:59:18.038Z,11.30
2022-10-08T06:01:45.461Z,11.40
2022-10-08T06:04:13.067Z,11.50
2022-10-08T06:06:42.654Z,11.70
2022-10-08T06:09:14.192Z,11.90
2022-10-08T06:11:43.124Z,12.10
2022-10-08T06:14:12.089Z,12.30
2022-10-08T06:16:40.152Z,12.60
2022-10-08T06:19:08.839Z,13.00
2022-10-08T06:21:36.595Z,13.30
2022-10-08T06:24:07.397Z,13.60
2022-10-08T06:26:37.463Z,13.70
2022-10-08T06:29:06.324Z,13.90
2022-10-08T06:31:35.150Z,14.00
2022-10-08T06:34:04.295Z,14.00
2022-10-08T06:36:32.577Z,14.10
2022-10-08T06:39:05.385Z,14.10
2022-10-08T06:41:35.983Z,14.20
2022-10-08T06:44:05.050Z,14.30
2022-10-08T06:46:32.872Z,14.40
2022-10-08T06:49:01.302Z,14.50
2022-10-08T06:51:29.389Z,14.50
2022-10-08T06:54:01.439Z,14.50
2022-10-08T06:56:33.776Z,14.60
2022-10-08T06:59:00.700Z,14.50
2022-10-08T07:01:33.364Z,14.50
2022-10-08T07:04:02.644Z,14.50
2022-10-08T07:06:29.913Z,14.40
2022-10-08T07:08:59.479Z,14.40
2022-10-08T07:11:27.600Z,14.40
2022-10-08T07:13:55.764Z,14.40
2022-10-08T07:16:24.830Z,14.50
2022-10-08T07:18:53.815Z,14.50
2022-10-08T07:21:22.330Z,14.60
2022-10-08T07:23:49.694Z,14.60
2022-10-08T07:26:19.368Z,14.70
2022-10-08T07:28:53.499Z,14.70
2022-10-08T07:31:23.906Z,14.70
2022-10-08T07:33:51.737Z,14.80
2022-10-08T07:36:24.035Z,14.90
2022-10-08T07:38:56.445Z,14.90
2022-10-08T07:41:23.846Z,14.90
2022-10-08T07:43:55.419Z,14.90
2022-10-08T07:46:22.775Z,15.00
2022-10-08T07:48:50.902Z,15.10
2022-10-08T07:51:19.703Z,15.20
2022-10-08T07:53:47.942Z,15.30
2022-10-08T07:56:17.299Z,15.40
2022-10-08T07:58:44.872Z,15.50
2022-10-08T08:01:14.811Z,15.60
2022-10-08T08:03:42.512Z,15.60
2022-10-08T08:06:12.755Z,15.70
2022-10-08T08:08:41.990Z,15.70
2022-10-08T08:11:11.088Z,15.80
2022-10-08T08:13:39.689Z,15.90
2022-10-08T08:16:10.481Z,16.00
2022-10-08T08:18:40.001Z,16.10
2022-10-08T08:21:10.210Z,16.20
2022-10-08T08:23:45.579Z,16.30
2022-10-08T08:26:36.026Z,16.40
2022-10-08T08:29:06.307Z,16.40
2022-10-08T08:31:36.092Z,16.40
2022-10-08T08:34:09.036Z,16.50
2022-10-08T08:36:39.505Z,16.60
2022-10-08T08:39:08.886Z,16.70
2022-10-08T08:41:56.167Z,16.90
2022-10-08T08:44:31.162Z,17.20
2022-10-08T08:47:06.265Z,17.00
2022-10-08T08:49:58.533Z,17.00
2022-10-08T08:52:28.653Z,17.10
2022-10-08T08:54:56.230Z,17.30
2022-10-08T08:57:57.386Z,17.40
2022-10-08T09:00:33.164Z,17.90
2022-10-08T09:03:04.201Z,18.20
2022-10-08T09:05:35.893Z,18.30
2022-10-08T09:08:34.886Z,18.40
2022-10-08T09:11:04.919Z,18.50
2022-10-08T09:13:45.866Z,18.50
2022-10-08T09:16:14.678Z,18.40
2022-10-08T09:18:47.335Z,18.40
2022-10-08T09:21:14.625Z,18.30
2022-10-08T09:23:41.626Z,18.40
2022-10-08T09:26:08.579Z,18.40
2022-10-08T09:28:47.880Z,18.60
2022-10-08T09:31:27.043Z,18.50
2022-10-08T09:33:58.353Z,19.00
2022-10-08T09:36:30.544Z,19.10
2022-10-08T09:38:59.809Z,19.40
2022-10-08T09:41:28.867Z,19.70
2022-10-08T09:44:18.309Z,19.90
2022-10-08T09:46:46.153Z,20.00
2022-10-08T09:49:29.586Z,19.90
2022-10-08T09:51:58.561Z,19.60
2022-10-08T09:54:29.332Z,19.80
2022-10-08T09:56:59.568Z,19.60
2022-10-08T09:59:30.031Z,19.50
2022-10-08T10:01:58.456Z,19.50
2022-10-08T10:04:38.571Z,19.70
2022-10-08T10:07:06.095Z,19.80
2022-10-08T10:09:55.951Z,19.80
2022-10-08T10:12:34.274Z,19.80
2022-10-08T10:15:04.550Z,19.90
2022-10-08T10:17:40.739Z,19.90
2022-10-08T10:20:19.129Z,20.10
2022-10-08T10:23:11.623Z,20.00
2022-10-08T10:26:14.778Z,19.70
2022-10-08T10:28:55.975Z,19.60
2022-10-08T10:31:31.465Z,19.50
2022-10-08T10:34:08.849Z,19.50
2022-10-08T10:36:42.111Z,19.80
2022-10-08T10:39:46.055Z,20.00
2022-10-08T10:42:16.272Z,20.00
2022-10-08T10:44:53.580Z,19.90
2022-10-08T10:47:30.987Z,19.90
2022-10-08T10:50:01.421Z,20.00
2022-10-08T10:52:35.631Z,20.00
2022-10-08T10:55:08.286Z,19.90
2022-10-08T10:58:06.103Z,19.80
2022-10-08T11:01:02.424Z,19.70
2022-10-08T11:03:44.335Z,19.60
2022-10-08T11:06:32.351Z,19.30
2022-10-08T11:09:06.452Z,19.30
2022-10-08T11:11:41.061Z,19.40
2022-10-08T11:14:32.892Z,19.30
2022-10-08T11:17:00.086Z,19.20
2022-10-08T11:19:42.101Z,19.20
2022-10-08T11:22:31.209Z,19.10
2022-10-08T11:25:07.418Z,19.00
2022-10-08T11:27:43.236Z,19.00
2022-10-08T11:30:17.875Z,19.00
2022-10-08T11:32:52.410Z,19.00
2022-10-08T11:35:38.424Z,19.00
2022-10-08T11:38:11.002Z,19.10
2022-10-08T11:40:46.028Z,19.10
2022-10-08T11:43:32.166Z,19.10
2022-10-08T11:46:28.779Z,19.10
2022-10-08T11:49:00.566Z,19.10
2022-10-08T11:51:31.984Z,19.30
2022-10-08T11:54:07.119Z,19.20
2022-10-08T11:56:37.328Z,19.20
2022-10-08T11:59:27.761Z,19.10
2022-10-08T12:01:58.621Z,19.10
2022-10-08T12:04:35.637Z,19.20
2022-10-08T12:07:29.172Z,19.20
2022-10-08T12:10:08.967Z,19.30
2022-10-08T12:12:51.416Z,19.30
2022-10-08T12:15:43.049Z,19.50
2022-10-08T12:18:10.328Z,19.40
2022-10-08T12:20:39.217Z,19.50
2022-10-08T12:23:11.151Z,19.50
2022-10-08T12:25:44.259Z,19.40
2022-10-08T12:28:35.656Z,19.30
2022-10-08T12:31:23.677Z,19.20
2022-10-08T12:36:46.945Z,19.40
2022-10-08T12:39:33.814Z,20.00
2022-10-08T12:42:14.384Z,20.10
2022-10-08T12:44:59.866Z,20.30
2022-10-08T12:47:43.135Z,20.50
2022-10-08T12:50:29.947Z,20.30
2022-10-08T12:53:00.841Z,20.10
2022-10-08T12:55:30.809Z,19.90
2022-10-08T12:58:00.499Z,19.80
2022-10-08T13:00:33.351Z,19.90
2022-10-08T13:03:02.188Z,19.90
2022-10-08T13:05:35.850Z,19.90
2022-10-08T13:08:38.806Z,19.80
2022-10-08T13:11:12.215Z,19.70
2022-10-08T13:13:39.356Z,19.80
2022-10-08T13:16:07.872Z,19.70
2022-10-08T13:18:37.082Z,19.70
2022-10-08T13:21:09.999Z,19.80
2022-10-08T13:23:43.498Z,19.70
2022-10-08T13:26:38.492Z,19.70
2022-10-08T13:29:24.050Z,19.70
2022-10-08T13:31:52.845Z,19.60
2022-10-08T13:34:20.206Z,19.60
2022-10-08T13:36:50.558Z,19.50
2022-10-08T13:39:24.039Z,19.60
2022-10-08T13:41:57.961Z,19.70
2022-10-08T13:44:27.097Z,19.60
2022-10-08T13:46:54.989Z,19.40
2022-10-08T13:49:24.619Z,19.40
2022-10-08T13:51:52.624Z,19.40
2022-10-08T13:54:28.616Z,19.30
2022-10-08T13:56:55.990Z,19.30
2022-10-08T13:59:26.956Z,19.30
2022-10-08T14:01:56.978Z,19.20
2022-10-08T14:04:24.028Z,19.20
2022-10-08T14:06:54.622Z,19.20
2022-10-08T14:09:24.345Z,19.20
2022-10-08T14:11:56.431Z,19.30
2022-10-08T14:14:24.289Z,19.20
2022-10-08T14:16:51.826Z,19.20
2022-10-08T14:19:21.221Z,19.20
2022-10-08T14:21:50.148Z,19.20
2022-10-08T14:24:17.168Z,19.20
2022-10-08T14:26:44.343Z,19.20
2022-10-08T14:29:11.530Z,19.30
2022-10-08T14:31:38.740Z,19.40
2022-10-08T14:34:06.052Z,19.50
2022-10-08T14:36:38.584Z,19.50
2022-10-08T14:39:05.944Z,19.40
2022-10-08T14:41:33.378Z,19.30
2022-10-08T14:44:00.590Z,19.20
2022-10-08T14:46:27.580Z,19.20
2022-10-08T14:48:54.608Z,19.20
2022-10-08T14:51:21.864Z,19.10
2022-10-08T14:53:50.273Z,19.10
2022-10-08T14:56:17.402Z,19.10
2022-10-08T14:58:44.676Z,19.10
2022-10-08T15:01:11.730Z,19.00
2022-10-08T15:03:38.777Z,19.00
2022-10-08T15:06:06.177Z,18.90
2022-10-08T15:08:34.003Z,18.90
2022-10-08T15:11:04.323Z,18.90
2022-10-08T15:13:31.828Z,18.80
2022-10-08T15:15:59.264Z,18.80
2022-10-08T15:18:30.204Z,18.70
2022-10-08T15:20:59.830Z,18.70
2022-10-08T15:23:27.543Z,18.60
2022-10-08T15:25:59.300Z,18.60
2022-10-08T15:28:27.949Z,18.60
2022-10-08T15:31:05.219Z,18.50
2022-10-08T15:33:38.177Z,18.50
2022-10-08T15:36:32.272Z,18.40
2022-10-08T15:39:07.511Z,18.40
2022-10-08T15:41:37.672Z,18.30
2022-10-08T15:44:16.607Z,18.30
2022-10-08T15:46:43.942Z,18.30
2022-10-08T15:49:11.348Z,18.20
2022-10-08T15:51:38.515Z,18.20
2022-10-08T15:54:05.887Z,18.20
2022-10-08T15:56:34.860Z,18.20
2022-10-08T15:59:03.099Z,18.20
2022-10-08T16:01:31.168Z,18.20
2022-10-08T16:03:59.957Z,18.20
2022-10-08T16:06:34.235Z,18.10
2022-10-08T16:09:02.026Z,18.10
2022-10-08T16:11:34.341Z,18.10
2022-10-08T16:14:01.201Z,18.00
2022-10-08T16:16:29.166Z,18.10
2022-10-08T16:18:59.365Z,18.10
2022-10-08T16:21:28.460Z,18.10
2022-10-08T16:23:56.817Z,18.00
2022-10-08T16:26:24.476Z,18.00
2022-10-08T16:28:56.419Z,18.00
2022-10-08T16:31:29.034Z,18.10
2022-10-08T16:33:57.677Z,18.10
2022-10-08T16:36:25.974Z,17.90
2022-10-08T16:38:53.575Z,17.70
2022-10-08T16:41:25.668Z,17.20
2022-10-08T16:43:54.847Z,16.70
2022-10-08T16:46:23.155Z,16.30
2022-10-08T16:48:58.028Z,16.10
2022-10-08T16:51:27.792Z,16.00
2022-10-08T16:53:57.479Z,15.90
2022-10-08T16:56:27.325Z,15.80
2022-10-08T16:58:56.800Z,15.70
2022-10-08T17:01:24.415Z,15.60
2022-10-08T17:03:51.747Z,15.50
2022-10-08T17:06:20.919Z,15.50
2022-10-08T17:08:47.996Z,15.50
2022-10-08T17:11:15.619Z,15.40
2022-10-08T17:13:48.508Z,15.40
2022-10-08T17:16:16.674Z,15.40
2022-10-08T17:18:46.631Z,15.40
2022-10-08T17:21:14.759Z,15.40
2022-10-08T17:23:42.143Z,15.40
2022-10-08T17:26:12.714Z,15.40
2022-10-08T17:28:42.281Z,15.30
2022-10-08T17:31:14.361Z,15.30
2022-10-08T17:33:42.570Z,15.30
2022-10-08T17:36:15.684Z,15.30
2022-10-08T17:38:44.412Z,15.30
2022-10-08T17:41:15.548Z,15.30
2022-10-08T17:43:43.299Z,15.30
2022-10-08T17:46:14.322Z,15.30
2022-10-08T17:48:42.109Z,15.30
2022-10-08T17:51:17.643Z,15.30
2022-10-08T17:53:45.348Z,15.40
2022-10-08T17:56:13.942Z,15.30
2022-10-08T17:58:40.929Z,15.30
2022-10-08T18:01:15.876Z,15.30
2022-10-08T18:03:44.628Z,15.30
2022-10-08T18:06:12.443Z,15.30
2022-10-08T18:08:39.384Z,15.20
2022-10-08T18:11:12.185Z,15.20
2022-10-08T18:13:40.647Z,15.20
2022-10-08T18:16:15.881Z,15.20
2022-10-08T18:18:44.516Z,15.20
2022-10-08T18:21:13.985Z,15.10
2022-10-08T18:23:42.887Z,15.20
2022-10-08T18:26:25.144Z,15.10
2022-10-08T18:28:57.875Z,15.10
2022-10-08T18:31:27.920Z,15.10
2022-10-08T18:34:16.637Z,15.00
2022-10-08T18:36:45.182Z,14.90
2022-10-08T18:39:14.626Z,14.90
2022-10-08T18:41:46.859Z,14.90
2022-10-08T18:44:17.753Z,14.90
2022-10-08T18:46:46.010Z,14.90
2022-10-08T18:49:19.394Z,14.90
2022-10-08T18:51:48.990Z,14.90
2022-10-08T18:54:16.062Z,14.90
2022-10-08T18:56:42.997Z,14.80
2022-10-08T18:59:15.439Z,14.80
2022-10-08T19:01:45.513Z,14.70
2022-10-08T19:04:15.669Z,14.70
2022-10-08T19:06:44.536Z,14.60
2022-10-08T19:09:12.270Z,14.70
2022-10-08T19:11:45.189Z,14.60
2022-10-08T19:14:15.044Z,14.50
2022-10-08T19:16:43.090Z,14.50
2022-10-08T19:19:15.780Z,14.40
2022-10-08T19:21:43.805Z,14.40
2022-10-08T19:24:18.076Z,14.40
2022-10-08T19:26:45.971Z,14.30
2022-10-08T19:29:21.797Z,14.30
2022-10-08T19:31:50.293Z,14.30
2022-10-08T19:34:27.365Z,14.20
2022-10-08T19:36:54.776Z,14.20
2022-10-08T19:39:27.518Z,14.20
2022-10-08T19:41:54.892Z,14.20
2022-10-08T19:44:21.955Z,14.20
2022-10-08T19:46:50.228Z,14.20
2022-10-08T19:49:18.242Z,14.10
2022-10-08T19:51:45.884Z,14.10
2022-10-08T19:54:13.733Z,14.00
2022-10-08T19:56:40.742Z,13.90
2022-10-08T19:59:09.160Z,13.90
2022-10-08T20:01:37.288Z,13.90
2022-10-08T20:04:06.276Z,13.90
2022-10-08T20:06:38.563Z,13.90
2022-10-08T20:09:07.262Z,13.90
2022-10-08T20:11:34.198Z,13.90
2022-10-08T20:14:01.267Z,14.00
2022-10-08T20:16:31.543Z,13.90
2022-10-08T20:19:01.759Z,13.80
2022-10-08T20:21:31.773Z,13.80
2022-10-08T20:23:59.217Z,13.70
2022-10-08T20:26:28.807Z,13.70
2022-10-08T20:29:04.807Z,13.70
2022-10-08T20:31:34.624Z,13.60
2022-10-08T20:34:12.691Z,13.60
2022-10-08T20:36:40.626Z,13.60
2022-10-08T20:39:07.859Z,13.60
2022-10-08T20:41:34.829Z,13.60
2022-10-08T20:44:03.872Z,13.60
2022-10-08T20:46:33.076Z,13.50
2022-10-08T20:49:00.612Z,13.50
2022-10-08T20:51:29.180Z,13.50
2022-10-08T20:53:58.798Z,13.50
2022-10-08T20:56:27.155Z,13.50
2022-10-08T20:58:54.820Z,13.50
2022-10-08T21:01:28.400Z,13.50
2022-10-08T21:03:56.367Z,13.50
2022-10-08T21:06:35.051Z,13.50
2022-10-08T21:09:02.312Z,13.50
2022-10-08T21:11:32.722Z,13.50
2022-10-08T21:14:01.648Z,13.50
2022-10-08T21:16:37.880Z,13.40
2022-10-08T21:19:18.929Z,13.40
2022-10-08T21:21:46.220Z,13.40
2022-10-08T21:24:13.162Z,13.40
2022-10-08T21:26:41.737Z,13.50
2022-10-08T21:29:11.579Z,13.40
2022-10-08T21:31:40.600Z,13.40
2022-10-08T21:34:08.174Z,13.40
2022-10-08T21:36:38.613Z,13.40
2022-10-08T21:39:07.470Z,13.40
2022-10-08T21:41:35.913Z,13.40
2022-10-08T21:44:05.652Z,13.30
2022-10-08T21:46:35.515Z,13.30
2022-10-08T21:49:05.817Z,13.40
2022-10-08T21:51:34.134Z,13.50
2022-10-08T21:54:02.867Z,13.50
2022-10-08T21:56:32.261Z,13.40
2022-10-08T21:59:01.279Z,13.50
2022-10-08T22:01:44.857Z,13.40
2022-10-08T22:04:17.482Z,13.20
2022-10-08T22:06:50.235Z,13.20
2022-10-08T22:09:23.502Z,13.10
2022-10-08T22:11:51.858Z,13.10
2022-10-08T22:14:19.218Z,13.10
2022-10-08T22:16:46.417Z,13.10
2022-10-08T22:19:13.840Z,13.20
2022-10-08T22:21:41.245Z,13.10
2022-10-08T22:24:08.363Z,13.00
2022-10-08T22:26:41.013Z,13.00
2022-10-08T22:29:08.312Z,13.00
2022-10-08T22:31:35.954Z,12.90
2022-10-08T22:34:03.320Z,12.80
2022-10-08T22:36:32.683Z,12.80
2022-10-08T22:38:59.818Z,12.70
2022-10-08T22:41:32.209Z,12.70
2022-10-08T22:44:00.015Z,12.80
2022-10-08T22:46:29.558Z,12.70
2022-10-08T22:48:58.880Z,12.70
2022-10-08T22:51:26.633Z,12.60
2022-10-08T22:53:53.843Z,12.50
2022-10-08T22:56:23.355Z,12.50
2022-10-08T22:58:50.946Z,12.50
2022-10-08T23:01:23.095Z,12.30
2022-10-08T23:03:50.290Z,12.20
2022-10-08T23:06:20.131Z,12.30
2022-10-08T23:08:52.367Z,12.20
2022-10-08T23:11:19.704Z,12.20
2022-10-08T23:13:51.062Z,12.20
2022-10-08T23:16:18.269Z,12.10
2022-10-08T23:18:51.296Z,12.10
2022-10-08T23:21:18.289Z,12.10
2022-10-08T23:23:46.610Z,12.00
2022-10-08T23:26:14.887Z,11.90
2022-10-08T23:28:43.569Z,11.90
2022-10-08T23:31:16.201Z,11.90
2022-10-08T23:33:46.418Z,11.90
2022-10-08T23:36:17.043Z,11.90
2022-10-08T23:38:44.634Z,11.80
2022-10-08T23:41:13.079Z,11.70
2022-10-08T23:43:44.380Z,11.70
2022-10-08T23:46:14.528Z,11.70
2022-10-08T23:48:42.488Z,11.60
2022-10-08T23:51:10.567Z,11.70
2022-10-08T23:53:38.370Z,11.70
2022-10-08T23:56:06.388Z,11.80
2022-10-08T23:58:33.848Z,11.80
